createdAt,value
2022-09-18T00:02:06.227Z,97969.00
2022-09-18T00:05:08.391Z,97979.50
2022-09-18T00:08:10.461Z,97972.38
2022-09-18T00:11:13.396Z,97969.56
2022-09-18T00:14:16.648Z,97972.22
2022-09-18T00:17:19.606Z,97980.03
2022-09-18T00:20:21.457Z,97980.88
2022-09-18T00:23:23.000Z,97973.69
2022-09-18T00:26:27.932Z,97977.28
2022-09-18T00:29:29.659Z,97979.00
2022-09-18T00:32:32.960Z,97984.34
2022-09-18T00:35:41.467Z,97985.13
2022-09-18T00:38:43.205Z,97995.75
2022-09-18T00:41:45.405Z,97991.28
2022-09-18T00:44:47.475Z,97993.88
2022-09-18T00:47:51.471Z,97989.50
2022-09-18T00:50:53.268Z,97988.56
2022-09-18T00:53:58.584Z,98000.06
2022-09-18T00:57:01.775Z,98003.56
2022-09-18T01:00:14.612Z,98006.31
2022-09-18T01:03:17.781Z,98002.88
2022-09-18T01:06:25.811Z,98015.38
2022-09-18T01:09:30.445Z,98004.78
2022-09-18T01:12:37.870Z,98004.75
2022-09-18T01:15:41.875Z,98009.31
2022-09-18T01:18:49.621Z,98007.47
2022-09-18T01:22:00.811Z,98003.88
2022-09-18T01:25:13.618Z,98009.06
2022-09-18T01:28:19.283Z,98008.13
2022-09-18T01:31:26.419Z,97993.78
2022-09-18T01:34:31.046Z,98001.00
2022-09-18T01:37:34.842Z,98005.44
2022-09-18T01:40:38.747Z,98005.38
2022-09-18T01:43:44.343Z,98011.47
2022-09-18T01:46:48.522Z,98002.56
2022-09-18T01:49:51.155Z,98006.88
2022-09-18T01:52:54.423Z,98000.72
2022-09-18T01:55:59.399Z,98000.75
2022-09-18T01:59:04.079Z,98001.69
2022-09-18T02:02:08.659Z,97991.72
2022-09-18T02:05:14.923Z,98002.34
2022-09-18T02:08:20.675Z,97997.88
2022-09-18T02:11:22.866Z,98004.06
2022-09-18T02:14:28.536Z,97997.09
2022-09-18T02:17:32.975Z,97998.91
2022-09-18T02:20:36.704Z,97999.91
2022-09-18T02:23:39.119Z,98012.34
2022-09-18T02:26:41.626Z,98000.91
2022-09-18T02:29:46.682Z,98004.50
2022-09-18T02:32:48.466Z,98002.63
2022-09-18T02:35:53.532Z,97987.63
2022-09-18T02:39:02.064Z,97993.78
2022-09-18T02:42:11.659Z,97993.59
2022-09-18T02:45:22.887Z,97990.97
2022-09-18T02:48:34.162Z,97990.06
2022-09-18T02:51:41.817Z,97990.06
2022-09-18T02:54:48.058Z,97991.72
2022-09-18T02:57:53.502Z,97993.44
2022-09-18T03:00:58.560Z,97987.09
2022-09-18T03:04:02.880Z,97986.31
2022-09-18T03:07:04.620Z,97981.84
2022-09-18T03:10:07.068Z,97985.38
2022-09-18T03:13:08.664Z,97985.28
2022-09-18T03:16:12.189Z,97992.50
2022-09-18T03:19:14.956Z,97996.88
2022-09-18T03:22:16.757Z,97991.38
2022-09-18T03:25:21.153Z,97987.88
2022-09-18T03:28:23.039Z,97993.19
2022-09-18T03:31:26.457Z,97986.88
2022-09-18T03:34:28.823Z,97985.13
2022-09-18T03:37:30.615Z,97979.81
2022-09-18T03:40:34.305Z,97980.75
2022-09-18T03:43:36.185Z,97978.09
2022-09-18T03:46:39.619Z,97981.69
2022-09-18T03:49:41.243Z,97986.00
2022-09-18T03:52:46.617Z,97978.94
2022-09-18T03:55:52.470Z,97989.53
2022-09-18T03:58:54.705Z,97985.00
2022-09-18T04:01:57.904Z,97979.69
2022-09-18T04:05:00.593Z,97977.09
2022-09-18T04:08:02.725Z,97978.09
2022-09-18T04:11:05.611Z,97971.13
2022-09-18T04:14:07.352Z,97978.16
2022-09-18T04:17:11.148Z,97976.38
2022-09-18T04:20:16.152Z,97983.41
2022-09-18T04:23:18.537Z,97982.41
2022-09-18T04:26:20.254Z,97978.75
2022-09-18T04:29:21.689Z,97980.53
2022-09-18T04:32:25.030Z,97968.97
2022-09-18T04:35:26.754Z,97965.28
2022-09-18T04:38:29.953Z,97964.50
2022-09-18T04:41:31.648Z,97972.41
2022-09-18T04:44:33.503Z,97973.34
2022-09-18T04:47:37.849Z,97968.00
2022-09-18T04:50:39.533Z,97965.28
2022-09-18T04:53:41.515Z,97969.66
2022-09-18T04:56:43.219Z,97968.78
2022-09-18T04:59:45.418Z,97964.41
2022-09-18T05:02:48.715Z,97969.03
2022-09-18T05:05:50.384Z,97962.00
2022-09-18T05:08:51.919Z,97962.00
2022-09-18T05:11:54.633Z,97957.53
2022-09-18T05:14:56.479Z,97960.13
2022-09-18T05:18:00.313Z,97965.28
2022-09-18T05:21:02.353Z,97961.75
2022-09-18T05:24:04.473Z,97970.69
2022-09-18T05:27:06.462Z,97969.56
2022-09-18T05:30:08.641Z,97969.50
2022-09-18T05:33:11.957Z,97968.41
2022-09-18T05:36:16.711Z,97975.47
2022-09-18T05:39:18.828Z,97977.19
2022-09-18T05:42:20.688Z,97978.97
2022-09-18T05:45:22.797Z,97977.00
2022-09-18T05:48:25.789Z,97968.09
2022-09-18T05:51:27.666Z,97977.75
2022-09-18T05:54:29.662Z,97975.69
2022-09-18T05:57:31.509Z,97970.22
2022-09-18T06:00:35.857Z,97970.16
2022-09-18T06:03:39.049Z,97972.81
2022-09-18T06:06:40.825Z,97968.28
2022-09-18T06:09:42.651Z,97969.03
2022-09-18T06:12:44.735Z,97968.97
2022-09-18T06:15:46.960Z,97974.28
2022-09-18T06:18:50.227Z,97971.53
2022-09-18T06:21:52.242Z,97972.47
2022-09-18T06:24:54.026Z,97971.47
2022-09-18T06:28:01.875Z,97977.66
2022-09-18T06:31:04.416Z,97970.38
2022-09-18T06:34:07.506Z,97967.56
2022-09-18T06:37:09.405Z,97971.94
2022-09-18T06:40:11.677Z,97968.31
2022-09-18T06:43:13.332Z,97970.13
2022-09-18T06:46:15.020Z,97977.94
2022-09-18T06:49:18.101Z,97979.84
2022-09-18T06:52:22.557Z,97980.63
2022-09-18T06:55:24.564Z,97980.31
2022-09-18T06:58:26.461Z,97975.66
2022-09-18T07:01:28.374Z,97975.44
2022-09-18T07:04:31.263Z,97973.38
2022-09-18T07:07:32.900Z,97966.19
2022-09-18T07:10:34.616Z,97961.78
2022-09-18T07:13:37.647Z,97956.16
2022-09-18T07:16:39.522Z,97964.22
2022-09-18T07:19:42.898Z,97957.97
2022-09-18T07:22:51.746Z,97966.63
2022-09-18T07:25:55.334Z,97966.63
2022-09-18T07:28:59.270Z,97963.81
2022-09-18T07:32:00.843Z,97964.59
2022-09-18T07:35:04.343Z,97968.03
2022-09-18T07:38:06.935Z,97968.91
2022-09-18T07:41:08.800Z,97973.88
2022-09-18T07:44:11.728Z,97968.50
2022-09-18T07:47:22.867Z,97955.78
2022-09-18T07:50:26.562Z,97952.00
2022-09-18T07:53:32.528Z,97960.78
2022-09-18T07:56:34.852Z,97959.66
2022-09-18T07:59:36.735Z,97955.28
2022-09-18T08:02:41.939Z,97957.09
2022-09-18T08:05:48.546Z,97956.31
2022-09-18T08:08:55.108Z,97956.22
2022-09-18T08:11:57.720Z,97959.75
2022-09-18T08:15:02.998Z,97961.22
2022-09-18T08:18:05.214Z,97956.72
2022-09-18T08:21:10.766Z,97957.44
2022-09-18T08:24:12.476Z,97955.38
2022-09-18T08:27:14.145Z,97946.88
2022-09-18T08:30:17.017Z,97950.31
2022-09-18T08:33:18.887Z,97959.06
2022-09-18T08:36:23.524Z,97951.94
2022-09-18T08:39:25.220Z,97952.78
2022-09-18T08:42:32.891Z,97957.34
2022-09-18T08:45:39.439Z,97959.53
2022-09-18T08:48:45.352Z,97954.94
2022-09-18T08:52:01.446Z,97949.50
2022-09-18T08:55:05.411Z,97958.63
2022-09-18T08:58:08.162Z,97951.41
2022-09-18T09:01:13.047Z,97947.88
2022-09-18T09:04:19.385Z,97943.63
2022-09-18T09:07:34.033Z,97948.09
2022-09-18T09:10:43.414Z,97956.25
2022-09-18T09:13:59.689Z,97959.78
2022-09-18T09:17:04.905Z,97957.31
2022-09-18T09:20:14.929Z,97960.22
2022-09-18T09:23:23.091Z,97948.69
2022-09-18T09:26:32.686Z,97953.41
2022-09-18T09:29:38.661Z,97953.94
2022-09-18T09:32:43.926Z,97947.31
2022-09-18T09:35:52.397Z,97950.16
2022-09-18T09:38:58.073Z,97962.53
2022-09-18T09:42:05.601Z,97949.47
2022-09-18T09:45:13.721Z,97940.00
2022-09-18T09:48:19.474Z,97936.56
2022-09-18T09:51:25.882Z,97934.06
2022-09-18T09:54:32.888Z,97934.28
2022-09-18T09:57:39.755Z,97945.50
2022-09-18T10:00:47.977Z,97948.16
2022-09-18T10:04:00.111Z,97954.56
2022-09-18T10:07:05.275Z,97946.66
2022-09-18T10:10:16.258Z,97954.91
2022-09-18T10:13:21.643Z,97952.47
2022-09-18T10:16:25.980Z,97954.28
2022-09-18T10:19:35.751Z,97953.41
2022-09-18T10:22:39.234Z,97958.69
2022-09-18T10:25:45.340Z,97960.47
2022-09-18T10:28:47.405Z,97948.34
2022-09-18T10:31:55.322Z,97959.88
2022-09-18T10:34:59.629Z,97958.91
2022-09-18T10:38:02.017Z,97953.38
2022-09-18T10:41:21.697Z,97963.00
2022-09-18T10:44:27.481Z,97963.84
2022-09-18T10:47:31.624Z,97958.53
2022-09-18T10:50:34.608Z,97952.09
2022-09-18T10:53:43.031Z,97947.53
2022-09-18T10:56:47.842Z,97950.66
2022-09-18T10:59:51.208Z,97941.56
2022-09-18T11:03:00.015Z,97936.38
2022-09-18T11:06:03.262Z,97939.13
2022-09-18T11:09:11.627Z,97935.03
2022-09-18T11:12:16.077Z,97932.19
2022-09-18T11:15:21.866Z,97935.31
2022-09-18T11:18:24.649Z,97929.50
2022-09-18T11:21:27.794Z,97931.41
2022-09-18T11:24:37.463Z,97933.28
2022-09-18T11:27:46.989Z,97928.28
2022-09-18T11:30:57.362Z,97931.13
2022-09-18T11:34:02.896Z,97920.00
2022-09-18T11:37:11.184Z,97920.78
2022-09-18T11:40:18.020Z,97926.75
2022-09-18T11:43:25.963Z,97934.25
2022-09-18T11:46:41.581Z,97926.44
2022-09-18T11:49:45.281Z,97925.56
2022-09-18T11:52:58.900Z,97933.72
2022-09-18T11:56:06.175Z,97930.28
2022-09-18T11:59:12.110Z,97916.59
2022-09-18T12:02:27.881Z,97919.31
2022-09-18T12:05:34.241Z,97953.25
2022-09-18T12:08:41.447Z,97955.25
2022-09-18T12:11:49.426Z,97921.03
2022-09-18T12:14:57.130Z,97912.53
2022-09-18T12:18:03.432Z,97922.22
2022-09-18T12:21:08.682Z,97920.16
2022-09-18T12:24:16.136Z,97914.66
2022-09-18T12:27:26.047Z,97910.72
2022-09-18T12:30:34.068Z,97891.41
2022-09-18T12:33:43.189Z,97876.69
2022-09-18T12:36:53.863Z,97865.66
2022-09-18T12:40:14.227Z,97860.88
2022-09-18T12:43:34.615Z,97872.16
2022-09-18T12:46:52.367Z,97848.97
2022-09-18T12:50:07.527Z,97876.34
2022-09-18T12:53:27.744Z,97875.41
2022-09-18T12:56:38.857Z,97880.81
2022-09-18T12:59:52.589Z,97892.25
2022-09-18T13:03:01.644Z,97873.63
2022-09-18T13:06:12.150Z,97877.13
2022-09-18T13:09:20.842Z,97866.50
2022-09-18T13:12:29.041Z,97864.38
2022-09-18T13:15:36.058Z,97866.00
2022-09-18T13:18:41.924Z,97862.41
2022-09-18T13:21:46.527Z,97861.38
2022-09-18T13:24:51.991Z,97853.25
2022-09-18T13:28:01.118Z,97847.16
2022-09-18T13:31:22.185Z,97850.03
2022-09-18T13:34:29.052Z,97844.78
2022-09-18T13:37:36.679Z,97839.38
2022-09-18T13:40:39.566Z,97844.63
2022-09-18T13:43:43.229Z,97836.81
2022-09-18T13:46:45.275Z,97835.00
2022-09-18T13:49:49.234Z,97832.16
2022-09-18T13:52:55.911Z,97827.56
2022-09-18T13:55:59.996Z,97830.13
2022-09-18T13:59:02.311Z,97829.97
2022-09-18T14:02:22.302Z,97827.22
2022-09-18T14:05:31.282Z,97832.44
2022-09-18T14:08:38.313Z,97828.69
2022-09-18T14:11:40.165Z,97831.38
2022-09-18T14:14:42.670Z,97832.91
2022-09-18T14:18:06.603Z,97828.13
2022-09-18T14:21:15.708Z,97838.59
2022-09-18T14:24:36.527Z,97831.13
2022-09-18T14:27:42.082Z,97847.81
2022-09-18T14:30:43.936Z,97845.81
2022-09-18T14:33:45.945Z,97852.84
2022-09-18T14:36:48.458Z,97852.00
2022-09-18T14:39:55.538Z,97840.50
2022-09-18T14:42:57.458Z,97842.38
2022-09-18T14:45:59.588Z,97852.09
2022-09-18T14:49:03.583Z,97840.50
2022-09-18T14:52:17.178Z,97833.44
2022-09-18T14:55:24.703Z,97838.94
2022-09-18T14:58:29.037Z,97833.63
2022-09-18T15:01:34.447Z,97820.22
2022-09-18T15:04:37.134Z,97830.00
2022-09-18T15:07:45.600Z,97832.69
2022-09-18T15:10:50.837Z,97837.06
2022-09-18T15:13:54.404Z,97837.16
2022-09-18T15:16:59.057Z,97836.28
2022-09-18T15:20:01.496Z,97831.91
2022-09-18T15:23:17.524Z,97843.41
2022-09-18T15:26:24.936Z,97823.16
2022-09-18T15:29:28.567Z,97824.06
2022-09-18T15:32:36.440Z,97830.50
2022-09-18T15:35:40.636Z,97831.38
2022-09-18T15:38:44.971Z,97821.59
2022-09-18T15:41:48.274Z,97819.69
2022-09-18T15:45:10.896Z,97805.59
2022-09-18T15:48:29.973Z,97802.94
2022-09-18T15:51:36.023Z,97816.25
2022-09-18T15:54:37.714Z,97812.72
2022-09-18T15:57:47.959Z,97802.06
2022-09-18T16:00:55.032Z,97797.59
2022-09-18T16:04:06.688Z,97797.78
2022-09-18T16:07:18.119Z,97787.03
2022-09-18T16:10:34.860Z,97786.00
2022-09-18T16:13:39.507Z,97780.09
2022-09-18T16:16:41.392Z,97777.25
2022-09-18T16:19:43.523Z,97771.16
2022-09-18T16:22:46.125Z,97790.56
2022-09-18T16:26:02.796Z,97791.34
2022-09-18T16:29:15.332Z,97802.00
2022-09-18T16:32:17.374Z,97806.31
2022-09-18T16:35:19.272Z,97809.84
2022-09-18T16:38:21.299Z,97816.88
2022-09-18T16:41:23.224Z,97813.41
2022-09-18T16:44:26.337Z,97796.66
2022-09-18T16:47:27.910Z,97803.69
2022-09-18T16:50:29.713Z,97799.41
2022-09-18T16:53:31.355Z,97791.69
2022-09-18T16:56:37.523Z,97799.91
2022-09-18T16:59:43.355Z,97804.81
2022-09-18T17:02:45.232Z,97797.16
2022-09-18T17:05:47.679Z,97783.84
2022-09-18T17:08:49.932Z,97781.00
2022-09-18T17:11:52.054Z,97786.19
2022-09-18T17:15:08.797Z,97773.56
2022-09-18T17:18:10.797Z,97776.13
2022-09-18T17:21:16.361Z,97784.97
2022-09-18T17:24:25.597Z,97797.53
2022-09-18T17:27:30.551Z,97786.19
2022-09-18T17:30:39.659Z,97804.88
2022-09-18T17:33:41.892Z,97807.72
2022-09-18T17:36:44.126Z,97807.72
2022-09-18T17:39:46.576Z,97814.94
2022-09-18T17:42:52.843Z,97820.25
2022-09-18T17:45:57.527Z,97826.53
2022-09-18T17:48:59.935Z,97823.78
2022-09-18T17:52:04.057Z,97824.63
2022-09-18T17:55:18.005Z,97832.44
2022-09-18T17:58:22.051Z,97827.94
2022-09-18T18:01:25.655Z,97828.78
2022-09-18T18:04:27.415Z,97833.25
2022-09-18T18:07:29.178Z,97850.31
2022-09-18T18:10:36.732Z,97837.19
2022-09-18T18:13:39.307Z,97830.91
2022-09-18T18:16:43.039Z,97830.28
2022-09-18T18:19:47.244Z,97838.44
2022-09-18T18:22:49.222Z,97835.00
2022-09-18T18:25:51.202Z,97838.53
2022-09-18T18:28:53.035Z,97827.19
2022-09-18T18:31:57.594Z,97830.00
2022-09-18T18:35:01.181Z,97837.22
2022-09-18T18:38:03.275Z,97827.50
2022-09-18T18:41:05.339Z,97836.44
2022-09-18T18:44:07.675Z,97830.34
2022-09-18T18:47:10.719Z,97833.78
2022-09-18T18:50:14.336Z,97842.78
2022-09-18T18:53:16.613Z,97837.47
2022-09-18T18:56:18.211Z,97840.34
2022-09-18T18:59:22.218Z,97836.91
2022-09-18T19:02:25.236Z,97836.91
2022-09-18T19:05:31.073Z,97837.94
2022-09-18T19:08:34.584Z,97838.13
2022-09-18T19:11:45.507Z,97845.31
2022-09-18T19:14:47.972Z,97843.56
2022-09-18T19:17:52.202Z,97839.44
2022-09-18T19:20:57.718Z,97835.16
2022-09-18T19:23:59.342Z,97862.53
2022-09-18T19:27:01.297Z,97853.88
2022-09-18T19:30:03.160Z,97863.69
2022-09-18T19:33:06.724Z,97850.56
2022-09-18T19:36:11.260Z,97852.44
2022-09-18T19:39:17.830Z,97855.28
2022-09-18T19:42:21.061Z,97847.50
2022-09-18T19:45:24.646Z,97862.59
2022-09-18T19:48:28.446Z,97861.84
2022-09-18T19:51:30.621Z,97862.78
2022-09-18T19:54:32.817Z,97867.31
2022-09-18T19:57:34.658Z,97855.88
2022-09-18T20:00:39.740Z,97863.97
2022-09-18T20:03:43.148Z,97853.34
2022-09-18T20:06:44.730Z,97854.38
2022-09-18T20:09:46.293Z,97853.44
2022-09-18T20:12:52.632Z,97845.53
2022-09-18T20:16:01.520Z,97844.66
2022-09-18T20:19:05.944Z,97844.66
2022-09-18T20:22:08.622Z,97839.44
2022-09-18T20:25:10.810Z,97846.47
2022-09-18T20:28:16.868Z,97849.91
2022-09-18T20:31:19.005Z,97846.47
2022-09-18T20:34:24.759Z,97844.88
2022-09-18T20:37:28.225Z,97848.47
2022-09-18T20:40:30.333Z,97838.72
2022-09-18T20:43:32.698Z,97834.34
2022-09-18T20:46:37.378Z,97840.69
2022-09-18T20:49:40.896Z,97837.06
2022-09-18T20:52:46.193Z,97847.78
2022-09-18T20:55:49.491Z,97850.63
2022-09-18T20:58:54.664Z,97848.97
2022-09-18T21:01:57.314Z,97857.00
2022-09-18T21:05:07.647Z,97848.16
2022-09-18T21:08:10.849Z,97844.56
2022-09-18T21:11:13.872Z,97838.63
2022-09-18T21:14:16.405Z,97848.31
2022-09-18T21:17:17.885Z,97845.66
2022-09-18T21:20:21.895Z,97833.31
2022-09-18T21:23:42.818Z,97831.59
2022-09-18T21:26:48.684Z,97837.69
2022-09-18T21:29:50.334Z,97838.78
2022-09-18T21:32:55.458Z,97842.38
2022-09-18T21:35:59.027Z,97842.31
2022-09-18T21:39:00.777Z,97846.84
2022-09-18T21:42:04.905Z,97851.28
2022-09-18T21:45:06.889Z,97847.72
2022-09-18T21:48:09.458Z,97859.13
2022-09-18T21:51:14.837Z,97856.38
2022-09-18T21:54:21.797Z,97862.56
2022-09-18T21:57:23.781Z,97873.28
2022-09-18T22:00:25.909Z,97882.97
2022-09-18T22:03:27.699Z,97879.44
2022-09-18T22:06:32.965Z,97881.94
2022-09-18T22:09:38.605Z,97884.59
2022-09-18T22:12:41.385Z,97888.19
2022-09-18T22:15:43.363Z,97890.69
2022-09-18T22:18:47.850Z,97894.22
2022-09-18T22:21:52.885Z,97902.19
2022-09-18T22:24:54.550Z,97915.44
2022-09-18T22:27:56.199Z,97910.91
2022-09-18T22:30:57.933Z,97919.66
2022-09-18T22:34:05.427Z,97924.97
2022-09-18T22:37:09.965Z,97929.44
2022-09-18T22:40:11.858Z,97928.25
2022-09-18T22:43:15.568Z,97936.88
2022-09-18T22:46:17.654Z,97935.94
2022-09-18T22:49:19.932Z,97938.53
2022-09-18T22:52:23.015Z,97943.84
2022-09-18T22:55:24.934Z,97942.03
2022-09-18T22:58:26.731Z,97946.56
2022-09-18T23:01:31.158Z,97958.00
2022-09-18T23:04:33.755Z,97965.97
2022-09-18T23:07:38.109Z,97977.38
2022-09-18T23:10:40.205Z,97973.81
2022-09-18T23:13:43.919Z,97983.56
2022-09-18T23:16:45.835Z,97972.06
2022-09-18T23:19:51.471Z,97988.84
2022-09-18T23:22:54.813Z,97997.63
2022-09-18T23:26:01.284Z,98010.00
2022-09-18T23:29:05.810Z,98008.03
2022-09-18T23:32:08.541Z,98008.03
2022-09-18T23:35:10.467Z,98014.22
2022-09-18T23:38:13.712Z,98024.84
2022-09-18T23:41:16.732Z,98023.13
2022-09-18T23:44:19.700Z,98024.06
2022-09-18T23:47:21.480Z,98022.28
2022-09-18T23:50:23.388Z,98019.63
2022-09-18T23:53:26.479Z,98026.81
2022-09-18T23:56:29.574Z,98027.81
2022-09-18T23:59:31.548Z,98026.06
